sensor_id;sensor_type;location;lat;lon;timestamp;pressure;altitude;pressure_sealevel;temperature;humidity
44734;BME280;30462;52.446;-1.930;2022-08-24T00:00:24;100052.3359;;;;
44734;BME280;30462;52.446;-1.930;2022-08-24T00:01:24;100053.7344;;;;
44734;BME280;30462;52.446;-1.930;2022-08-24T00:02:23;100051.9297;;;;
44734;BME280;30462;52.446;-1.930;2022-08-24T00:03:23;100054.9492;;;;
44734;BME280;30462;52.446;-1.930;2022-08-24T00:04:24;100052.8477;;;;
44734;BME280;30462;52.446;-1.930;2022-08-24T00:05:24;100046.9844;;;;
44734;BME280;30462;52.446;-1.930;2022-08-24T00:06:24;100052.0664;;;;
44734;BME280;30462;52.446;-1.930;2022-08-24T00:07:24;100051.5078;;;;
44734;BME280;30462;52.446;-1.930;2022-08-24T00:08:24;100055.1445;;;;
44734;BME280;30462;52.446;-1.930;2022-08-24T00:09:23;100051.3867;;;;
44734;BME280;30462;52.446;-1.930;2022-08-24T00:10:23;100054.4648;;;;
44734;BME280;30462;52.446;-1.930;2022-08-24T00:11:24;100053.793;;;;
44734;BME280;30462;52.446;-1.930;2022-08-24T00:12:24;100048.3203;;;;
44734;BME280;30462;52.446;-1.930;2022-08-24T00:13:24;100049.5938;;;;
44734;BME280;30462;52.446;-1.930;2022-08-24T00:14:24;100047.2305;;;;
44734;BME280;30462;52.446;-1.930;2022-08-24T00:15:23;100044.8906;;;;
44734;BME280;30462;52.446;-1.930;2022-08-24T00:16:23;100043.9336;;;;
44734;BME280;30462;52.446;-1.930;2022-08-24T00:17:24;100047.1797;;;;
44734;BME280;30462;52.446;-1.930;2022-08-24T00:18:24;100046.8633;;;;
44734;BME280;30462;52.446;-1.930;2022-08-24T00:19:23;100049.7148;;;;
44734;BME280;30462;52.446;-1.930;2022-08-24T00:20:23;100051.1328;;;;
44734;BME280;30462;52.446;-1.930;2022-08-24T00:21:23;100053.5234;;;;
44734;BME280;30462;52.446;-1.930;2022-08-24T00:22:24;100051.5703;;;;
44734;BME280;30462;52.446;-1.930;2022-08-24T00:23:24;100052.2227;;;;
44734;BME280;30462;52.446;-1.930;2022-08-24T00:24:24;100053.8398;;;;
44734;BME280;30462;52.446;-1.930;2022-08-24T00:25:24;100053.6797;;;;
44734;BME280;30462;52.446;-1.930;2022-08-24T00:26:24;100051.3164;;;;
44734;BME280;30462;52.446;-1.930;2022-08-24T00:27:24;100047.5938;;;;
44734;BME280;30462;52.446;-1.930;2022-08-24T00:28:24;100049.9961;;;;
44734;BME280;30462;52.446;-1.930;2022-08-24T00:29:24;100045.0508;;;;
44734;BME280;30462;52.446;-1.930;2022-08-24T00:30:24;100041.6992;;;;
44734;BME280;30462;52.446;-1.930;2022-08-24T00:31:24;100038.25;;;;
44734;BME280;30462;52.446;-1.930;2022-08-24T00:32:23;100031.5234;;;;
44734;BME280;30462;52.446;-1.930;2022-08-24T00:33:24;100033.7148;;;;
44734;BME280;30462;52.446;-1.930;2022-08-24T00:34:24;100030.0352;;;;
44734;BME280;30462;52.446;-1.930;2022-08-24T00:35:24;100022.8359;;;;
44734;BME280;30462;52.446;-1.930;2022-08-24T00:36:23;100023.5;;;;
44734;BME280;30462;52.446;-1.930;2022-08-24T00:37:24;100018.9961;;;;
44734;BME280;30462;52.446;-1.930;2022-08-24T00:38:24;100020.7344;;;;
44734;BME280;30462;52.446;-1.930;2022-08-24T00:39:23;100021.1953;;;;
44734;BME280;30462;52.446;-1.930;2022-08-24T00:40:25;100020.5352;;;;
44734;BME280;30462;52.446;-1.930;2022-08-24T00:41:24;100018.957;;;;
44734;BME280;30462;52.446;-1.930;2022-08-24T00:42:24;100014.043;;;;
44734;BME280;30462;52.446;-1.930;2022-08-24T00:43:24;100012.7383;;;;
44734;BME280;30462;52.446;-1.930;2022-08-24T00:44:23;100012.5625;;;;
44734;BME280;30462;52.446;-1.930;2022-08-24T00:45:24;100013.25;;;;
44734;BME280;30462;52.446;-1.930;2022-08-24T00:46:24;100011.0352;;;;
44734;BME280;30462;52.446;-1.930;2022-08-24T00:47:24;100013.2656;;;;
44734;BME280;30462;52.446;-1.930;2022-08-24T00:48:24;100012.9688;;;;
44734;BME280;30462;52.446;-1.930;2022-08-24T00:49:24;100019.8945;;;;
44734;BME280;30462;52.446;-1.930;2022-08-24T00:50:24;100020.9727;;;;
44734;BME280;30462;52.446;-1.930;2022-08-24T00:51:26;100023.5508;;;;
44734;BME280;30462;52.446;-1.930;2022-08-24T00:52:24;100021.4883;;;;
44734;BME280;30462;52.446;-1.930;2022-08-24T00:53:24;100022.5078;;;;
44734;BME280;30462;52.446;-1.930;2022-08-24T00:54:24;100022.9063;;;;
44734;BME280;30462;52.446;-1.930;2022-08-24T00:55:26;100019.1719;;;;
44734;BME280;30462;52.446;-1.930;2022-08-24T00:56:25;100018.8789;;;;
44734;BME280;30462;52.446;-1.930;2022-08-24T00:57:24;100017.2539;;;;
44734;BME280;30462;52.446;-1.930;2022-08-24T00:58:29;100015.6719;;;;
44734;BME280;30462;52.446;-1.930;2022-08-24T00:59:25;100012.6289;;;;
44734;BME280;30462;52.446;-1.930;2022-08-24T01:00:26;100011.75;;;;
44734;BME280;30462;52.446;-1.930;2022-08-24T01:01:24;100017;;;;
44734;BME280;30462;52.446;-1.930;2022-08-24T01:02:25;100015.7656;;;;
44734;BME280;30462;52.446;-1.930;2022-08-24T01:03:24;100014.1875;;;;
44734;BME280;30462;52.446;-1.930;2022-08-24T01:04:25;100016.4219;;;;
44734;BME280;30462;52.446;-1.930;2022-08-24T01:05:24;100018.0313;;;;
44734;BME280;30462;52.446;-1.930;2022-08-24T01:06:24;100017.2383;;;;
44734;BME280;30462;52.446;-1.930;2022-08-24T01:07:25;100018.6953;;;;
44734;BME280;30462;52.446;-1.930;2022-08-24T01:08:23;100020.3164;;;;
44734;BME280;30462;52.446;-1.930;2022-08-24T01:09:24;100019.7656;;;;
44734;BME280;30462;52.446;-1.930;2022-08-24T01:10:25;100020.5898;;;;
44734;BME280;30462;52.446;-1.930;2022-08-24T01:11:25;100020.9414;;;;
44734;BME280;30462;52.446;-1.930;2022-08-24T01:12:23;100021.7813;;;;
44734;BME280;30462;52.446;-1.930;2022-08-24T01:13:24;100023.1602;;;;
44734;BME280;30462;52.446;-1.930;2022-08-24T01:14:23;100019.7969;;;;
44734;BME280;30462;52.446;-1.930;2022-08-24T01:15:23;100018.2891;;;;
44734;BME280;30462;52.446;-1.930;2022-08-24T01:16:23;100021.8242;;;;
44734;BME280;30462;52.446;-1.930;2022-08-24T01:17:24;100022.9961;;;;
44734;BME280;30462;52.446;-1.930;2022-08-24T01:18:24;100023.2383;;;;
44734;BME280;30462;52.446;-1.930;2022-08-24T01:19:27;100025.0625;;;;
44734;BME280;30462;52.446;-1.930;2022-08-24T01:20:24;100025.2656;;;;
44734;BME280;30462;52.446;-1.930;2022-08-24T01:21:25;100021.4609;;;;
44734;BME280;30462;52.446;-1.930;2022-08-24T01:22:28;100020.0313;;;;
44734;BME280;30462;52.446;-1.930;2022-08-24T01:24:23;100021.3672;;;;
44734;BME280;30462;52.446;-1.930;2022-08-24T01:25:24;100020.3164;;;;
44734;BME280;30462;52.446;-1.930;2022-08-24T01:26:25;100021.4023;;;;
44734;BME280;30462;52.446;-1.930;2022-08-24T01:27:23;100025.0703;;;;
44734;BME280;30462;52.446;-1.930;2022-08-24T01:28:24;100024.5703;;;;
44734;BME280;30462;52.446;-1.930;2022-08-24T01:29:25;100024.1406;;;;
44734;BME280;30462;52.446;-1.930;2022-08-24T01:30:24;100025.7539;;;;
44734;BME280;30462;52.446;-1.930;2022-08-24T01:31:24;100021.5508;;;;
44734;BME280;30462;52.446;-1.930;2022-08-24T01:32:24;100021.8281;;;;
44734;BME280;30462;52.446;-1.930;2022-08-24T01:33:24;100025.1992;;;;
44734;BME280;30462;52.446;-1.930;2022-08-24T01:34:23;100018.918;;;;
44734;BME280;30462;52.446;-1.930;2022-08-24T01:35:24;100016.5977;;;;
44734;BME280;30462;52.446;-1.930;2022-08-24T01:36:26;100016.6914;;;;
44734;BME280;30462;52.446;-1.930;2022-08-24T01:37:23;100017.9766;;;;
44734;BME280;30462;52.446;-1.930;2022-08-24T01:38:23;100017.5078;;;;
44734;BME280;30462;52.446;-1.930;2022-08-24T01:39:25;100015.2266;;;;
44734;BME280;30462;52.446;-1.930;2022-08-24T01:40:25;100013.1016;;;;
44734;BME280;30462;52.446;-1.930;2022-08-24T01:41:24;100014.6016;;;;
44734;BME280;30462;52.446;-1.930;2022-08-24T01:42:24;100012.1797;;;;
44734;BME280;30462;52.446;-1.930;2022-08-24T01:43:23;100012.0352;;;;
44734;BME280;30462;52.446;-1.930;2022-08-24T01:44:25;100012.5195;;;;
44734;BME280;30462;52.446;-1.930;2022-08-24T01:45:24;100013.625;;;;
44734;BME280;30462;52.446;-1.930;2022-08-24T01:46:23;100013.6797;;;;
44734;BME280;30462;52.446;-1.930;2022-08-24T01:47:24;100013.9336;;;;
44734;BME280;30462;52.446;-1.930;2022-08-24T01:48:24;100014.6992;;;;
44734;BME280;30462;52.446;-1.930;2022-08-24T01:49:25;100012.1328;;;;
44734;BME280;30462;52.446;-1.930;2022-08-24T01:50:24;100013.0234;;;;
44734;BME280;30462;52.446;-1.930;2022-08-24T01:51:24;100015.043;;;;
44734;BME280;30462;52.446;-1.930;2022-08-24T01:52:25;100013.8828;;;;
44734;BME280;30462;52.446;-1.930;2022-08-24T01:53:24;100011.6797;;;;
44734;BME280;30462;52.446;-1.930;2022-08-24T01:54:24;100005.1445;;;;
44734;BME280;30462;52.446;-1.930;2022-08-24T01:55:24;100003.5156;;;;
44734;BME280;30462;52.446;-1.930;2022-08-24T01:56:24;100005.4219;;;;
44734;BME280;30462;52.446;-1.930;2022-08-24T01:57:24;100001.6875;;;;
44734;BME280;30462;52.446;-1.930;2022-08-24T01:58:24;100007.0117;;;;
44734;BME280;30462;52.446;-1.930;2022-08-24T01:59:24;100005.1367;;;;
44734;BME280;30462;52.446;-1.930;2022-08-24T02:00:24;100010.6367;;;;
44734;BME280;30462;52.446;-1.930;2022-08-24T02:01:24;100007.6523;;;;
44734;BME280;30462;52.446;-1.930;2022-08-24T02:02:26;100010.9258;;;;
44734;BME280;30462;52.446;-1.930;2022-08-24T02:03:23;100007;;;;
44734;BME280;30462;52.446;-1.930;2022-08-24T02:04:23;100008.4453;;;;
44734;BME280;30462;52.446;-1.930;2022-08-24T02:05:24;100008.9102;;;;
44734;BME280;30462;52.446;-1.930;2022-08-24T02:06:24;100008.2422;;;;
44734;BME280;30462;52.446;-1.930;2022-08-24T02:07:23;100006.5977;;;;
44734;BME280;30462;52.446;-1.930;2022-08-24T02:08:25;100008.8047;;;;
44734;BME280;30462;52.446;-1.930;2022-08-24T02:09:23;100009.4688;;;;
44734;BME280;30462;52.446;-1.930;2022-08-24T02:10:24;100008.0234;;;;
44734;BME280;30462;52.446;-1.930;2022-08-24T02:11:24;100010.1992;;;;
44734;BME280;30462;52.446;-1.930;2022-08-24T02:12:23;100009.0508;;;;
44734;BME280;30462;52.446;-1.930;2022-08-24T02:13:23;100005.1406;;;;
44734;BME280;30462;52.446;-1.930;2022-08-24T02:14:23;100003.6875;;;;
44734;BME280;30462;52.446;-1.930;2022-08-24T02:15:26;100011.3828;;;;
44734;BME280;30462;52.446;-1.930;2022-08-24T02:16:23;100012.9453;;;;
44734;BME280;30462;52.446;-1.930;2022-08-24T02:17:23;100007.2969;;;;
44734;BME280;30462;52.446;-1.930;2022-08-24T02:18:24;100007.1055;;;;
44734;BME280;30462;52.446;-1.930;2022-08-24T02:19:24;100000.8555;;;;
44734;BME280;30462;52.446;-1.930;2022-08-24T02:20:24;100001.1602;;;;
44734;BME280;30462;52.446;-1.930;2022-08-24T02:21:24;100001.6953;;;;
44734;BME280;30462;52.446;-1.930;2022-08-24T02:22:23;100003.5313;;;;
44734;BME280;30462;52.446;-1.930;2022-08-24T02:23:23;100001.7617;;;;
44734;BME280;30462;52.446;-1.930;2022-08-24T02:24:24;100003.8711;;;;
44734;BME280;30462;52.446;-1.930;2022-08-24T02:25:24;100009.6992;;;;
44734;BME280;30462;52.446;-1.930;2022-08-24T02:26:24;100004.9219;;;;
44734;BME280;30462;52.446;-1.930;2022-08-24T02:27:24;100001.8945;;;;
44734;BME280;30462;52.446;-1.930;2022-08-24T02:28:24;100004.3555;;;;
44734;BME280;30462;52.446;-1.930;2022-08-24T02:29:23;99999.76953;;;;
44734;BME280;30462;52.446;-1.930;2022-08-24T02:30:24;100003.4102;;;;
44734;BME280;30462;52.446;-1.930;2022-08-24T02:31:24;100003.4648;;;;
44734;BME280;30462;52.446;-1.930;2022-08-24T02:32:23;99999.63281;;;;
44734;BME280;30462;52.446;-1.930;2022-08-24T02:33:23;99996.78125;;;;
44734;BME280;30462;52.446;-1.930;2022-08-24T02:34:24;100002.1797;;;;
44734;BME280;30462;52.446;-1.930;2022-08-24T02:35:23;99997.78125;;;;
44734;BME280;30462;52.446;-1.930;2022-08-24T02:36:24;100000.2656;;;;
44734;BME280;30462;52.446;-1.930;2022-08-24T02:37:23;99994.66797;;;;
44734;BME280;30462;52.446;-1.930;2022-08-24T02:38:23;100000.3516;;;;
44734;BME280;30462;52.446;-1.930;2022-08-24T02:39:24;100007.1055;;;;
44734;BME280;30462;52.446;-1.930;2022-08-24T02:40:24;100000.3555;;;;
44734;BME280;30462;52.446;-1.930;2022-08-24T02:41:24;100003.9414;;;;
44734;BME280;30462;52.446;-1.930;2022-08-24T02:42:24;100002.7461;;;;
44734;BME280;30462;52.446;-1.930;2022-08-24T02:43:24;99999.05469;;;;
44734;BME280;30462;52.446;-1.930;2022-08-24T02:44:24;100000.9961;;;;
44734;BME280;30462;52.446;-1.930;2022-08-24T02:45:23;100000.0547;;;;
44734;BME280;30462;52.446;-1.930;2022-08-24T02:46:24;99999.51563;;;;
44734;BME280;30462;52.446;-1.930;2022-08-24T02:47:24;100004.7266;;;;
44734;BME280;30462;52.446;-1.930;2022-08-24T02:48:24;100001.2344;;;;
44734;BME280;30462;52.446;-1.930;2022-08-24T02:49:24;100000.0234;;;;
44734;BME280;30462;52.446;-1.930;2022-08-24T02:50:24;100004.6211;;;;
44734;BME280;30462;52.446;-1.930;2022-08-24T02:51:25;100000.3281;;;;
44734;BME280;30462;52.446;-1.930;2022-08-24T02:52:24;100003.4531;;;;
44734;BME280;30462;52.446;-1.930;2022-08-24T02:53:24;100000.6016;;;;
44734;BME280;30462;52.446;-1.930;2022-08-24T02:54:24;99999.23828;;;;
44734;BME280;30462;52.446;-1.930;2022-08-24T02:55:24;100002.4531;;;;
44734;BME280;30462;52.446;-1.930;2022-08-24T02:56:24;100003.1367;;;;
44734;BME280;30462;52.446;-1.930;2022-08-24T02:57:24;100002.125;;;;
44734;BME280;30462;52.446;-1.930;2022-08-24T02:58:23;99999.28516;;;;
44734;BME280;30462;52.446;-1.930;2022-08-24T02:59:23;100004.7617;;;;
44734;BME280;30462;52.446;-1.930;2022-08-24T03:00:24;100004.1055;;;;
44734;BME280;30462;52.446;-1.930;2022-08-24T03:01:23;100004.25;;;;
44734;BME280;30462;52.446;-1.930;2022-08-24T03:02:24;100001.5078;;;;
44734;BME280;30462;52.446;-1.930;2022-08-24T03:03:23;100000.4258;;;;
44734;BME280;30462;52.446;-1.930;2022-08-24T03:04:23;99999.90234;;;;
44734;BME280;30462;52.446;-1.930;2022-08-24T03:05:24;99993.77344;;;;
44734;BME280;30462;52.446;-1.930;2022-08-24T03:06:23;99999.32422;;;;
44734;BME280;30462;52.446;-1.930;2022-08-24T03:07:23;99991.78516;;;;
44734;BME280;30462;52.446;-1.930;2022-08-24T03:08:23;99993.88672;;;;
44734;BME280;30462;52.446;-1.930;2022-08-24T03:09:24;99993.94141;;;;
44734;BME280;30462;52.446;-1.930;2022-08-24T03:10:24;99992.96094;;;;
44734;BME280;30462;52.446;-1.930;2022-08-24T03:11:24;99997.76172;;;;
44734;BME280;30462;52.446;-1.930;2022-08-24T03:12:23;99992.30078;;;;
44734;BME280;30462;52.446;-1.930;2022-08-24T03:13:24;99998.70313;;;;
44734;BME280;30462;52.446;-1.930;2022-08-24T03:14:24;100004.7891;;;;
44734;BME280;30462;52.446;-1.930;2022-08-24T03:15:24;100005.2617;;;;
44734;BME280;30462;52.446;-1.930;2022-08-24T03:16:24;100001.1445;;;;
44734;BME280;30462;52.446;-1.930;2022-08-24T03:17:24;100007.6641;;;;
44734;BME280;30462;52.446;-1.930;2022-08-24T03:18:24;100006.0977;;;;
44734;BME280;30462;52.446;-1.930;2022-08-24T03:19:24;100001.9375;;;;
44734;BME280;30462;52.446;-1.930;2022-08-24T03:20:24;99998.46094;;;;
44734;BME280;30462;52.446;-1.930;2022-08-24T03:21:24;99999.04297;;;;
44734;BME280;30462;52.446;-1.930;2022-08-24T03:22:24;100003.6992;;;;
44734;BME280;30462;52.446;-1.930;2022-08-24T03:23:23;100002.9961;;;;
44734;BME280;30462;52.446;-1.930;2022-08-24T03:24:24;100005.8906;;;;
44734;BME280;30462;52.446;-1.930;2022-08-24T03:25:24;100002.2539;;;;
44734;BME280;30462;52.446;-1.930;2022-08-24T03:26:24;100004.457;;;;
44734;BME280;30462;52.446;-1.930;2022-08-24T03:27:23;100008.7539;;;;
44734;BME280;30462;52.446;-1.930;2022-08-24T03:28:24;100012.4258;;;;
44734;BME280;30462;52.446;-1.930;2022-08-24T03:29:24;100008.0586;;;;
44734;BME280;30462;52.446;-1.930;2022-08-24T03:30:24;100007.6758;;;;
44734;BME280;30462;52.446;-1.930;2022-08-24T03:31:23;100002.0352;;;;
44734;BME280;30462;52.446;-1.930;2022-08-24T03:32:23;100006.0781;;;;
44734;BME280;30462;52.446;-1.930;2022-08-24T03:33:24;100009.4375;;;;
44734;BME280;30462;52.446;-1.930;2022-08-24T03:34:24;100012.8672;;;;
44734;BME280;30462;52.446;-1.930;2022-08-24T03:35:24;100012.125;;;;
44734;BME280;30462;52.446;-1.930;2022-08-24T03:36:23;100009.7148;;;;
44734;BME280;30462;52.446;-1.930;2022-08-24T03:37:23;100010.9688;;;;
44734;BME280;30462;52.446;-1.930;2022-08-24T03:38:23;100009;;;;
44734;BME280;30462;52.446;-1.930;2022-08-24T03:39:24;100005.6719;;;;
44734;BME280;30462;52.446;-1.930;2022-08-24T03:40:24;100003.8047;;;;
44734;BME280;30462;52.446;-1.930;2022-08-24T03:41:24;100005.1484;;;;
44734;BME280;30462;52.446;-1.930;2022-08-24T03:42:23;100001.6211;;;;
44734;BME280;30462;52.446;-1.930;2022-08-24T03:43:23;100008.1289;;;;
44734;BME280;30462;52.446;-1.930;2022-08-24T03:44:23;100008.9336;;;;
44734;BME280;30462;52.446;-1.930;2022-08-24T03:45:24;100006.4063;;;;
44734;BME280;30462;52.446;-1.930;2022-08-24T03:46:24;100000.8711;;;;
44734;BME280;30462;52.446;-1.930;2022-08-24T03:47:24;99997.92969;;;;
44734;BME280;30462;52.446;-1.930;2022-08-24T03:48:23;99997.89063;;;;
44734;BME280;30462;52.446;-1.930;2022-08-24T03:49:23;99998.97656;;;;
44734;BME280;30462;52.446;-1.930;2022-08-24T03:50:24;99997.89844;;;;
44734;BME280;30462;52.446;-1.930;2022-08-24T03:51:25;99997.16016;;;;
44734;BME280;30462;52.446;-1.930;2022-08-24T03:52:23;99995.93359;;;;
44734;BME280;30462;52.446;-1.930;2022-08-24T03:53:24;99997.77734;;;;
44734;BME280;30462;52.446;-1.930;2022-08-24T03:54:24;99992.5;;;;
44734;BME280;30462;52.446;-1.930;2022-08-24T03:55:23;99998.36719;;;;
44734;BME280;30462;52.446;-1.930;2022-08-24T03:56:23;99998.97266;;;;
44734;BME280;30462;52.446;-1.930;2022-08-24T03:57:24;100006.7773;;;;
44734;BME280;30462;52.446;-1.930;2022-08-24T03:58:23;100001.7109;;;;
44734;BME280;30462;52.446;-1.930;2022-08-24T03:59:23;99998.44531;;;;
44734;BME280;30462;52.446;-1.930;2022-08-24T04:00:24;99998.59766;;;;
44734;BME280;30462;52.446;-1.930;2022-08-24T04:01:24;99999.91797;;;;
44734;BME280;30462;52.446;-1.930;2022-08-24T04:02:24;100002.1289;;;;
44734;BME280;30462;52.446;-1.930;2022-08-24T04:03:24;100004.0508;;;;
44734;BME280;30462;52.446;-1.930;2022-08-24T04:04:24;100002.1875;;;;
44734;BME280;30462;52.446;-1.930;2022-08-24T04:05:24;100000.9531;;;;
44734;BME280;30462;52.446;-1.930;2022-08-24T04:06:24;99999.99609;;;;
44734;BME280;30462;52.446;-1.930;2022-08-24T04:07:23;100000.1641;;;;
44734;BME280;30462;52.446;-1.930;2022-08-24T04:08:23;99997.49609;;;;
44734;BME280;30462;52.446;-1.930;2022-08-24T04:09:23;99995.72656;;;;
44734;BME280;30462;52.446;-1.930;2022-08-24T04:10:24;100000.8789;;;;
44734;BME280;30462;52.446;-1.930;2022-08-24T04:11:24;100000.832;;;;
44734;BME280;30462;52.446;-1.930;2022-08-24T04:12:24;100001.5742;;;;
44734;BME280;30462;52.446;-1.930;2022-08-24T04:13:23;100001.7539;;;;
44734;BME280;30462;52.446;-1.930;2022-08-24T04:14:23;100001.0195;;;;
44734;BME280;30462;52.446;-1.930;2022-08-24T04:15:24;99999.70703;;;;
44734;BME280;30462;52.446;-1.930;2022-08-24T04:16:24;100002.4258;;;;
44734;BME280;30462;52.446;-1.930;2022-08-24T04:17:24;100001.4805;;;;
44734;BME280;30462;52.446;-1.930;2022-08-24T04:18:24;100001.2461;;;;
44734;BME280;30462;52.446;-1.930;2022-08-24T04:19:24;100000.4453;;;;
44734;BME280;30462;52.446;-1.930;2022-08-24T04:20:23;100003.6875;;;;
44734;BME280;30462;52.446;-1.930;2022-08-24T04:21:24;99996.22266;;;;
44734;BME280;30462;52.446;-1.930;2022-08-24T04:22:24;100002.0938;;;;
44734;BME280;30462;52.446;-1.930;2022-08-24T04:23:24;100003.1758;;;;
44734;BME280;30462;52.446;-1.930;2022-08-24T04:24:24;100003.4063;;;;
44734;BME280;30462;52.446;-1.930;2022-08-24T04:25:24;100001.707;;;;
44734;BME280;30462;52.446;-1.930;2022-08-24T04:26:25;100000.1602;;;;
44734;BME280;30462;52.446;-1.930;2022-08-24T04:27:24;99999.4375;;;;
44734;BME280;30462;52.446;-1.930;2022-08-24T04:28:23;99993.29688;;;;
44734;BME280;30462;52.446;-1.930;2022-08-24T04:29:23;99989.47266;;;;
44734;BME280;30462;52.446;-1.930;2022-08-24T04:30:23;99993.90234;;;;
44734;BME280;30462;52.446;-1.930;2022-08-24T04:31:24;99989.4375;;;;
44734;BME280;30462;52.446;-1.930;2022-08-24T04:32:23;99989.26172;;;;
44734;BME280;30462;52.446;-1.930;2022-08-24T04:33:23;99989.3125;;;;
44734;BME280;30462;52.446;-1.930;2022-08-24T04:34:24;99988.45313;;;;
44734;BME280;30462;52.446;-1.930;2022-08-24T04:35:24;99987.64063;;;;
44734;BME280;30462;52.446;-1.930;2022-08-24T04:36:24;99986.52734;;;;
44734;BME280;30462;52.446;-1.930;2022-08-24T04:37:24;99984.28906;;;;
44734;BME280;30462;52.446;-1.930;2022-08-24T04:38:23;99986.01953;;;;
44734;BME280;30462;52.446;-1.930;2022-08-24T04:39:23;99981.70313;;;;
44734;BME280;30462;52.446;-1.930;2022-08-24T04:40:24;99984.30078;;;;
44734;BME280;30462;52.446;-1.930;2022-08-24T04:41:24;99984.99219;;;;
44734;BME280;30462;52.446;-1.930;2022-08-24T04:42:24;99982.76563;;;;
44734;BME280;30462;52.446;-1.930;2022-08-24T04:43:24;99984.39453;;;;
44734;BME280;30462;52.446;-1.930;2022-08-24T04:44:23;99989.34375;;;;
44734;BME280;30462;52.446;-1.930;2022-08-24T04:45:23;99989.8125;;;;
44734;BME280;30462;52.446;-1.930;2022-08-24T04:46:24;99991.57813;;;;
44734;BME280;30462;52.446;-1.930;2022-08-24T04:47:24;99991.57422;;;;
44734;BME280;30462;52.446;-1.930;2022-08-24T04:48:24;99988.83203;;;;
44734;BME280;30462;52.446;-1.930;2022-08-24T04:49:24;99987.06641;;;;
44734;BME280;30462;52.446;-1.930;2022-08-24T04:50:23;99991.33203;;;;
44734;BME280;30462;52.446;-1.930;2022-08-24T04:51:23;99991.55078;;;;
44734;BME280;30462;52.446;-1.930;2022-08-24T04:52:24;99997.91406;;;;
44734;BME280;30462;52.446;-1.930;2022-08-24T04:53:24;99995.91797;;;;
44734;BME280;30462;52.446;-1.930;2022-08-24T04:54:24;99994.74219;;;;
44734;BME280;30462;52.446;-1.930;2022-08-24T04:55:24;99998.15234;;;;
44734;BME280;30462;52.446;-1.930;2022-08-24T04:56:23;99996.16016;;;;
44734;BME280;30462;52.446;-1.930;2022-08-24T04:57:24;99996.52344;;;;
44734;BME280;30462;52.446;-1.930;2022-08-24T04:58:24;99998.01172;;;;
44734;BME280;30462;52.446;-1.930;2022-08-24T04:59:23;99999.10547;;;;
44734;BME280;30462;52.446;-1.930;2022-08-24T05:00:24;99998.45703;;;;
44734;BME280;30462;52.446;-1.930;2022-08-24T05:01:24;99998.71875;;;;
44734;BME280;30462;52.446;-1.930;2022-08-24T05:02:24;99999.73828;;;;
44734;BME280;30462;52.446;-1.930;2022-08-24T05:03:23;100004.5313;;;;
44734;BME280;30462;52.446;-1.930;2022-08-24T05:04:24;100004.0547;;;;
44734;BME280;30462;52.446;-1.930;2022-08-24T05:05:24;100010.125;;;;
44734;BME280;30462;52.446;-1.930;2022-08-24T05:06:24;100008.4883;;;;
44734;BME280;30462;52.446;-1.930;2022-08-24T05:07:24;100003.043;;;;
44734;BME280;30462;52.446;-1.930;2022-08-24T05:08:24;100007.2969;;;;
44734;BME280;30462;52.446;-1.930;2022-08-24T05:09:23;100005.4023;;;;
44734;BME280;30462;52.446;-1.930;2022-08-24T05:10:23;100002.8281;;;;
44734;BME280;30462;52.446;-1.930;2022-08-24T05:11:24;100005.9883;;;;
44734;BME280;30462;52.446;-1.930;2022-08-24T05:12:24;99999.71875;;;;
44734;BME280;30462;52.446;-1.930;2022-08-24T05:13:24;100004.6016;;;;
44734;BME280;30462;52.446;-1.930;2022-08-24T05:14:23;100003.2539;;;;
44734;BME280;30462;52.446;-1.930;2022-08-24T05:15:23;100001.3047;;;;
44734;BME280;30462;52.446;-1.930;2022-08-24T05:16:24;100001.1992;;;;
44734;BME280;30462;52.446;-1.930;2022-08-24T05:17:24;100002.7383;;;;
44734;BME280;30462;52.446;-1.930;2022-08-24T05:18:24;100003.332;;;;
44734;BME280;30462;52.446;-1.930;2022-08-24T05:19:24;100006.8359;;;;
44734;BME280;30462;52.446;-1.930;2022-08-24T05:20:24;100006.8516;;;;
44734;BME280;30462;52.446;-1.930;2022-08-24T05:21:24;100008.6406;;;;
44734;BME280;30462;52.446;-1.930;2022-08-24T05:22:24;100006.1133;;;;
44734;BME280;30462;52.446;-1.930;2022-08-24T05:23:23;100007.7031;;;;
44734;BME280;30462;52.446;-1.930;2022-08-24T05:24:24;100004.7813;;;;
44734;BME280;30462;52.446;-1.930;2022-08-24T05:25:24;100009.75;;;;
44734;BME280;30462;52.446;-1.930;2022-08-24T05:26:24;100006.5898;;;;
44734;BME280;30462;52.446;-1.930;2022-08-24T05:27:24;100009.5469;;;;
44734;BME280;30462;52.446;-1.930;2022-08-24T05:28:24;100007.2422;;;;
44734;BME280;30462;52.446;-1.930;2022-08-24T05:29:24;100005.5703;;;;
44734;BME280;30462;52.446;-1.930;2022-08-24T05:30:23;100009.4688;;;;
44734;BME280;30462;52.446;-1.930;2022-08-24T05:31:25;100008.3672;;;;
44734;BME280;30462;52.446;-1.930;2022-08-24T05:32:24;100014.9414;;;;
44734;BME280;30462;52.446;-1.930;2022-08-24T05:33:24;100013.6094;;;;
44734;BME280;30462;52.446;-1.930;2022-08-24T05:34:24;100014.1055;;;;
44734;BME280;30462;52.446;-1.930;2022-08-24T05:35:23;100012.6953;;;;
44734;BME280;30462;52.446;-1.930;2022-08-24T05:36:25;100011.5977;;;;
44734;BME280;30462;52.446;-1.930;2022-08-24T05:37:23;100018.0586;;;;
44734;BME280;30462;52.446;-1.930;2022-08-24T05:38:23;100018.9492;;;;
44734;BME280;30462;52.446;-1.930;2022-08-24T05:39:23;100017.4883;;;;
44734;BME280;30462;52.446;-1.930;2022-08-24T05:40:24;100017.3672;;;;
44734;BME280;30462;52.446;-1.930;2022-08-24T05:41:24;100022.9766;;;;
44734;BME280;30462;52.446;-1.930;2022-08-24T05:42:24;100016.7188;;;;
44734;BME280;30462;52.446;-1.930;2022-08-24T05:43:24;100019.0195;;;;
44734;BME280;30462;52.446;-1.930;2022-08-24T05:44:23;100023.8008;;;;
44734;BME280;30462;52.446;-1.930;2022-08-24T05:45:23;100018.0742;;;;
44734;BME280;30462;52.446;-1.930;2022-08-24T05:46:24;100024.4141;;;;
44734;BME280;30462;52.446;-1.930;2022-08-24T05:47:24;100025.9297;;;;